Time;durP1;ratioP1;P1;durP2;ratioP2;P2;SDS_P1;SDS_P2;PMS_P1;PMS_P2;Temp;Humidity;BMP_temperature;BMP_pressure;BME280_temperature;BME280_humidity;BME280_pressure;Samples;Min_cycle;Max_cycle;Signal;HPM_P1;HPM_P2
2023/04/21 00:00:39;;;;;;;15.27;12.82;;;7.70;96.70;;;;;;4183170;28;20064;-53
2023/04/21 00:02:41;;;;;;;15.98;12.63;;;7.60;96.70;;;;;;4180338;28;20045;-54
2023/04/21 00:04:48;;;;;;;17.23;13.80;;;7.60;96.80;;;;;;4184146;28;20079;-55
2023/04/21 00:06:52;;;;;;;16.27;13.77;;;7.50;96.80;;;;;;4188063;28;20072;-54
2023/04/21 00:08:54;;;;;;;18.15;14.18;;;7.50;96.90;;;;;;4197420;28;20455;-54
2023/04/21 00:10:56;;;;;;;17.08;13.57;;;7.60;96.90;;;;;;4178825;28;20264;-55
2023/04/21 00:12:58;;;;;;;16.17;13.57;;;7.60;96.90;;;;;;4183697;28;20045;-55
2023/04/21 00:15:00;;;;;;;18.75;14.05;;;7.50;96.90;;;;;;4187459;28;20498;-55
2023/04/21 00:17:05;;;;;;;16.15;13.13;;;7.40;97.10;;;;;;4191380;28;20049;-55
2023/04/21 00:19:07;;;;;;;;;;;7.50;97.30;;;;;;4184907;28;20049;-55
2023/04/21 00:21:10;;;;;;;14.38;12.25;;;7.40;97.10;;;;;;4198900;28;20392;-55
2023/04/21 00:23:13;;;;;;;17.50;13.73;;;7.40;97.40;;;;;;4168829;28;20158;-56
2023/04/21 00:25:15;;;;;;;17.60;13.13;;;7.50;97.20;;;;;;4187724;28;20049;-58
2023/04/21 00:27:16;;;;;;;14.82;13.23;;;7.50;97.20;;;;;;4192488;28;20056;-55
2023/04/21 00:29:20;;;;;;;16.23;13.65;;;7.50;97.10;;;;;;4183809;28;20057;-57
2023/04/21 00:31:23;;;;;;;15.27;11.98;;;7.50;97.40;;;;;;4188545;28;20048;-55
2023/04/21 00:33:25;;;;;;;16.48;11.90;;;7.50;97.40;;;;;;4183862;28;20490;-55
2023/04/21 00:35:27;;;;;;;15.43;13.02;;;7.50;97.30;;;;;;4183659;28;20052;-55
2023/04/21 00:37:30;;;;;;;15.77;13.27;;;7.50;97.30;;;;;;4193609;28;20106;-54
2023/04/21 00:39:32;;;;;;;17.60;13.45;;;7.50;97.20;;;;;;4173738;28;20108;-57
2023/04/21 00:41:35;;;;;;;15.98;13.13;;;7.50;97.40;;;;;;4216458;28;20462;-54
2023/04/21 00:43:59;;;;;;;16.42;13.70;;;7.60;97.10;;;;;;4216919;28;20118;-56
2023/04/21 00:46:01;;;;;;;17.25;13.77;;;7.60;97.10;;;;;;4197648;28;20101;-59
2023/04/21 00:48:03;;;;;;;16.05;13.25;;;7.60;97.10;;;;;;4216599;28;20050;-54
2023/04/21 00:50:06;;;;;;;19.85;13.68;;;7.50;97.40;;;;;;4216739;28;20044;-54
2023/04/21 00:52:08;;;;;;;16.77;13.32;;;7.50;97.40;;;;;;4216510;28;20048;-54
2023/04/21 00:54:13;;;;;;;14.88;12.02;;;7.50;97.70;;;;;;4217176;28;20051;-54
2023/04/21 00:56:16;;;;;;;17.90;13.35;;;7.50;97.50;;;;;;4215055;28;20131;-55
2023/04/21 00:58:18;;;;;;;18.10;13.40;;;7.50;97.50;;;;;;4216942;28;20052;-54
2023/04/21 01:00:20;;;;;;;15.18;12.75;;;7.50;97.40;;;;;;4217592;28;20131;-60
2023/04/21 01:02:23;;;;;;;15.55;13.07;;;7.50;97.50;;;;;;4218295;28;20493;-60
2023/04/21 01:04:27;;;;;;;17.05;13.65;;;7.60;97.30;;;;;;4218498;28;20048;-59
2023/04/21 01:06:31;;;;;;;16.15;13.98;;;7.50;97.40;;;;;;4217453;28;20150;-56
2023/04/21 01:08:34;;;;;;;17.13;13.27;;;7.60;97.30;;;;;;4219086;28;20098;-55
2023/04/21 01:10:38;;;;;;;18.15;13.23;;;7.60;97.20;;;;;;4219010;28;21115;-56
2023/04/21 01:12:44;;;;;;;14.90;13.02;;;7.70;97.20;;;;;;4218462;28;20127;-53
2023/04/21 01:14:47;;;;;;;16.33;13.10;;;7.70;97.30;;;;;;4218903;28;20048;-63
2023/04/21 01:16:51;;;;;;;13.85;11.15;;;7.70;97.10;;;;;;4216293;28;20052;-58
2023/04/21 01:18:53;;;;;;;16.17;13.68;;;7.80;97.10;;;;;;4215712;28;20040;-52
2023/04/21 01:20:57;;;;;;;14.82;12.77;;;7.80;96.90;;;;;;4214820;28;20106;-54
2023/04/21 01:23:01;;;;;;;15.15;12.93;;;7.70;97.00;;;;;;4214243;28;20071;-56
2023/04/21 01:25:04;;;;;;;21.38;13.55;;;7.80;97.00;;;;;;4213658;28;20135;-55
2023/04/21 01:27:10;;;;;;;14.32;12.15;;;7.60;97.10;;;;;;4214284;28;20089;-55
2023/04/21 01:29:13;;;;;;;14.40;12.60;;;7.60;97.10;;;;;;4204926;28;20047;-54
2023/04/21 01:31:15;;;;;;;16.55;13.27;;;7.60;97.20;;;;;;4215796;28;20102;-54
2023/04/21 01:33:19;;;;;;;17.58;13.93;;;7.50;97.40;;;;;;4215194;28;20048;-54
2023/04/21 01:35:21;;;;;;;15.77;13.52;;;7.60;97.30;;;;;;4215664;28;20050;-55
2023/04/21 01:37:25;;;;;;;14.95;12.52;;;7.60;97.10;;;;;;4214478;28;20060;-55
2023/04/21 01:39:30;;;;;;;15.73;13.65;;;7.60;97.30;;;;;;4215159;28;20055;-61
2023/04/21 01:41:32;;;;;;;18.10;13.25;;;7.70;97.10;;;;;;4217372;28;20875;-54
2023/04/21 01:43:34;;;;;;;15.30;13.07;;;7.60;97.10;;;;;;4211548;28;20090;-55
2023/04/21 01:45:36;;;;;;;15.07;12.00;;;7.70;97.30;;;;;;4215065;28;20048;-54
2023/04/21 01:47:38;;;;;;;13.38;11.75;;;7.70;97.00;;;;;;4213911;28;20051;-55
2023/04/21 01:49:41;;;;;;;14.85;12.40;;;7.70;97.20;;;;;;4215298;28;20086;-54
2023/04/21 01:51:43;;;;;;;14.82;11.50;;;7.70;97.40;;;;;;4214986;28;20136;-55
2023/04/21 01:53:45;;;;;;;13.30;11.18;;;7.80;97.30;;;;;;4215014;28;20044;-55
2023/04/21 01:55:49;;;;;;;14.55;11.88;;;7.90;97.10;;;;;;4214973;28;20036;-53
2023/04/21 01:57:51;;;;;;;13.85;11.93;;;8.00;96.70;;;;;;4214550;28;20071;-54
2023/04/21 01:59:53;;;;;;;15.65;12.32;;;7.90;96.70;;;;;;4215168;28;20051;-54
2023/04/21 02:01:55;;;;;;;14.68;11.85;;;7.90;96.90;;;;;;4215068;28;20044;-55
2023/04/21 02:03:57;;;;;;;15.02;12.02;;;8.00;96.80;;;;;;4196990;28;20465;-55
2023/04/21 02:05:59;;;;;;;14.18;11.60;;;8.00;96.70;;;;;;4196686;28;20070;-55
2023/04/21 02:08:02;;;;;;;11.80;9.73;;;7.90;96.70;;;;;;4214992;28;20047;-53
2023/04/21 02:10:04;;;;;;;12.55;10.05;;;7.90;97.00;;;;;;4217299;28;20052;-57
2023/04/21 02:12:08;;;;;;;13.88;11.50;;;8.00;96.90;;;;;;4215361;28;20447;-56
2023/04/21 02:14:10;;;;;;;13.23;10.85;;;8.00;96.80;;;;;;4215084;28;20040;-56
2023/04/21 02:16:12;;;;;;;14.23;10.38;;;8.00;96.60;;;;;;4214179;28;20044;-60
2023/04/21 02:18:15;;;;;;;15.25;12.07;;;8.00;96.70;;;;;;4215028;28;20048;-55
2023/04/21 02:20:17;;;;;;;13.07;10.73;;;7.90;96.70;;;;;;4201514;28;20048;-52
2023/04/21 02:22:23;;;;;;;13.98;11.25;;;7.90;96.90;;;;;;4202970;28;20126;-55
2023/04/21 02:24:25;;;;;;;12.75;10.85;;;7.90;96.80;;;;;;4209914;28;20044;-55
2023/04/21 02:26:28;;;;;;;13.43;10.90;;;8.00;96.80;;;;;;4214128;28;20093;-53
2023/04/21 02:28:31;;;;;;;13.95;11.60;;;8.00;96.80;;;;;;4214436;28;20044;-54
2023/04/21 02:30:34;;;;;;;13.70;11.63;;;8.00;96.90;;;;;;4198524;28;20052;-56
2023/04/21 02:32:36;;;;;;;14.07;11.43;;;8.10;96.80;;;;;;4197802;28;20441;-54
2023/04/21 02:34:40;;;;;;;10.95;9.77;;;8.10;96.80;;;;;;4200282;28;20472;-55
2023/04/21 02:36:42;;;;;;;14.37;11.53;;;8.20;96.90;;;;;;4205757;28;20103;-54
2023/04/21 02:38:44;;;;;;;13.95;11.13;;;8.10;96.80;;;;;;4179775;28;20443;-56
2023/04/21 02:40:47;;;;;;;14.38;11.75;;;8.20;96.70;;;;;;4218623;28;20048;-56
2023/04/21 02:42:49;;;;;;;14.68;11.52;;;8.20;96.60;;;;;;4211630;28;20103;-55
2023/04/21 02:44:52;;;;;;;12.95;11.23;;;8.30;96.60;;;;;;4203702;28;20051;-57
2023/04/21 02:46:54;;;;;;;15.20;12.30;;;8.30;96.30;;;;;;4213149;28;20058;-55
2023/04/21 02:48:57;;;;;;;13.38;10.52;;;8.40;96.50;;;;;;4214220;28;20043;-54
2023/04/21 02:50:59;;;;;;;13.90;12.25;;;8.40;96.50;;;;;;4209268;28;20048;-57
2023/04/21 02:53:01;;;;;;;13.23;11.50;;;8.40;96.40;;;;;;4199752;28;20048;-58
2023/04/21 02:55:04;;;;;;;15.95;12.25;;;8.30;96.30;;;;;;4203138;28;20048;-57
2023/04/21 02:57:06;;;;;;;14.18;12.45;;;8.40;96.50;;;;;;4188041;28;20083;-56
2023/04/21 02:59:10;;;;;;;15.40;11.93;;;8.50;96.30;;;;;;4199031;28;20114;-64
2023/04/21 03:01:14;;;;;;;15.20;12.23;;;8.40;96.40;;;;;;4211517;28;20101;-55
2023/04/21 03:03:16;;;;;;;14.75;12.13;;;8.50;96.40;;;;;;4202689;28;20075;-62
2023/04/21 03:05:18;;;;;;;14.15;10.55;;;8.50;96.40;;;;;;4203585;28;20052;-55
2023/04/21 03:07:20;;;;;;;14.57;11.10;;;8.40;96.20;;;;;;4213603;28;20097;-55
2023/04/21 03:09:23;;;;;;;13.00;10.63;;;8.30;96.10;;;;;;4214504;28;20089;-55
2023/04/21 03:11:25;;;;;;;12.43;10.70;;;8.20;96.40;;;;;;4214440;28;20114;-54
2023/04/21 03:13:27;;;;;;;12.63;11.32;;;8.20;96.60;;;;;;4213358;28;20044;-55
2023/04/21 03:15:29;;;;;;;12.98;11.05;;;8.20;96.40;;;;;;4214374;28;20051;-55
2023/04/21 03:17:33;;;;;;;14.88;12.45;;;8.30;96.60;;;;;;4213836;28;20052;-63
2023/04/21 03:19:35;;;;;;;14.48;12.63;;;8.40;96.50;;;;;;4214362;28;20410;-54
2023/04/21 03:21:38;;;;;;;15.68;13.23;;;8.40;96.50;;;;;;4214156;28;20497;-55
2023/04/21 03:23:40;;;;;;;16.38;12.50;;;8.50;96.50;;;;;;4214054;28;20044;-54
2023/04/21 03:25:42;;;;;;;13.80;11.57;;;8.40;96.40;;;;;;4213161;28;20036;-55
2023/04/21 03:27:45;;;;;;;17.08;13.27;;;8.40;96.80;;;;;;4212720;28;20040;-59
2023/04/21 03:29:47;;;;;;;14.45;11.40;;;8.50;96.60;;;;;;4213568;28;20040;-57
2023/04/21 03:31:49;;;;;;;17.52;15.10;;;8.40;96.70;;;;;;4213768;28;20044;-56
2023/04/21 03:33:54;;;;;;;15.77;12.57;;;8.40;96.70;;;;;;4213666;28;20043;-54
2023/04/21 03:35:56;;;;;;;14.88;12.65;;;8.40;96.90;;;;;;4213579;28;20048;-57
2023/04/21 03:37:59;;;;;;;15.18;13.05;;;8.40;96.80;;;;;;4212838;28;20100;-54
2023/04/21 03:40:06;;;;;;;15.73;13.52;;;8.40;96.90;;;;;;4216922;28;20096;-53
2023/04/21 03:42:08;;;;;;;19.23;14.82;;;8.40;97.10;;;;;;4218505;28;20122;-59
2023/04/21 03:44:10;;;;;;;15.93;12.50;;;8.40;97.00;;;;;;4213972;28;20397;-56
2023/04/21 03:46:19;;;;;;;17.40;15.02;;;8.50;97.10;;;;;;4215045;28;20057;-56
2023/04/21 03:48:21;;;;;;;17.67;13.98;;;8.40;97.30;;;;;;4215597;28;20048;-54
2023/04/21 03:50:25;;;;;;;16.38;14.18;;;8.50;97.20;;;;;;4214208;28;20048;-54
2023/04/21 03:52:27;;;;;;;15.77;13.07;;;8.40;97.10;;;;;;4213922;28;20058;-53
2023/04/21 03:54:29;;;;;;;14.65;12.05;;;8.50;97.20;;;;;;4195640;28;20041;-55
2023/04/21 03:56:31;;;;;;;17.15;14.40;;;8.50;97.20;;;;;;4212922;28;20048;-54
2023/04/21 03:58:34;;;;;;;15.95;14.25;;;8.50;97.00;;;;;;4200401;28;20390;-54
2023/04/21 04:00:35;;;;;;;17.90;13.65;;;8.40;97.20;;;;;;4181029;28;20049;-55
2023/04/21 04:02:38;;;;;;;16.50;13.50;;;8.50;97.20;;;;;;4212960;28;20043;-54
2023/04/21 04:04:40;;;;;;;14.23;12.70;;;8.50;97.20;;;;;;4213927;28;20063;-56
2023/04/21 04:06:44;;;;;;;14.52;12.77;;;8.50;97.20;;;;;;4213529;28;20443;-60
2023/04/21 04:08:46;;;;;;;17.30;13.98;;;8.60;97.10;;;;;;4213303;28;20044;-56
2023/04/21 04:10:48;;;;;;;15.55;12.20;;;8.60;97.20;;;;;;4213167;28;20117;-56
2023/04/21 04:12:50;;;;;;;15.27;12.57;;;8.60;97.30;;;;;;4213069;28;20059;-54
2023/04/21 04:14:52;;;;;;;17.92;14.55;;;8.60;97.10;;;;;;4213182;28;20491;-55
2023/04/21 04:16:54;;;;;;;17.77;14.25;;;8.60;97.10;;;;;;4212387;28;20056;-56
2023/04/21 04:18:56;;;;;;;14.93;13.35;;;8.60;97.10;;;;;;4212728;28;20043;-56
2023/04/21 04:21:05;;;;;;;18.92;14.82;;;8.50;97.30;;;;;;4194718;28;20131;-54
2023/04/21 04:23:08;;;;;;;17.52;14.32;;;8.50;97.20;;;;;;4207939;28;20037;-54
2023/04/21 04:25:11;;;;;;;15.13;13.35;;;8.50;97.40;;;;;;4203283;28;20044;-55
2023/04/21 04:27:13;;;;;;;16.67;13.27;;;8.60;97.00;;;;;;4211689;28;20040;-56
2023/04/21 04:29:16;;;;;;;16.23;14.30;;;8.60;97.20;;;;;;4213151;28;20050;-54
2023/04/21 04:31:19;;;;;;;16.95;14.63;;;8.70;97.20;;;;;;4213330;28;20051;-55
2023/04/21 04:33:21;;;;;;;17.10;13.93;;;8.70;97.00;;;;;;4190203;28;20114;-57
2023/04/21 04:35:23;;;;;;;15.02;12.73;;;8.70;97.00;;;;;;4195450;28;20123;-55
2023/04/21 04:37:25;;;;;;;17.95;13.82;;;8.70;97.10;;;;;;4212856;28;20044;-57
2023/04/21 04:39:31;;;;;;;15.45;13.85;;;8.70;97.20;;;;;;4213001;28;20047;-55
2023/04/21 04:41:35;;;;;;;16.27;13.65;;;8.70;97.00;;;;;;4212338;28;20044;-56
2023/04/21 04:43:40;;;;;;;11.48;8.70;;;8.70;97.40;;;;;;4212727;28;20043;-54
2023/04/21 04:45:42;;;;;;;19.40;15.10;;;8.50;97.60;;;;;;4213189;28;20063;-54
2023/04/21 04:47:46;;;;;;;17.00;13.93;;;8.60;97.40;;;;;;4212520;28;20048;-55
2023/04/21 04:49:51;;;;;;;16.45;13.30;;;8.60;97.40;;;;;;4213115;28;20572;-55
2023/04/21 04:51:55;;;;;;;16.05;13.45;;;8.60;97.40;;;;;;4213374;28;20044;-55
2023/04/21 04:53:57;;;;;;;16.15;12.20;;;8.60;97.40;;;;;;4212816;28;20054;-55
2023/04/21 04:56:01;;;;;;;15.93;13.05;;;8.70;97.60;;;;;;4214278;28;20048;-54
2023/04/21 04:58:04;;;;;;;17.25;14.32;;;8.60;97.30;;;;;;4197362;28;20411;-55
2023/04/21 05:00:10;;;;;;;16.02;14.32;;;8.60;97.50;;;;;;4215663;28;20071;-55
2023/04/21 05:02:12;;;;;;;16.88;14.10;;;8.70;97.20;;;;;;4215956;28;20044;-54
2023/04/21 05:04:16;;;;;;;17.30;13.63;;;8.70;97.20;;;;;;4215967;28;20524;-54
2023/04/21 05:06:18;;;;;;;15.55;13.88;;;8.70;97.50;;;;;;4216105;28;20051;-54
2023/04/21 05:08:20;;;;;;;14.52;12.38;;;8.70;97.40;;;;;;4215783;28;20064;-55
2023/04/21 05:10:22;;;;;;;18.55;14.65;;;8.80;97.40;;;;;;4215852;28;20064;-56
2023/04/21 05:12:26;;;;;;;17.40;14.25;;;8.80;97.20;;;;;;4197823;28;20055;-59
2023/04/21 05:14:29;;;;;;;17.90;15.15;;;8.80;97.50;;;;;;4199535;28;20052;-55
2023/04/21 05:16:33;;;;;;;17.70;14.43;;;8.80;97.20;;;;;;4202523;28;20044;-55
2023/04/21 05:18:35;;;;;;;16.80;13.70;;;8.80;97.40;;;;;;4216536;28;20063;-60
2023/04/21 05:20:40;;;;;;;16.75;13.07;;;8.80;97.50;;;;;;4206551;28;20086;-55
2023/04/21 05:22:42;;;;;;;25.35;15.32;;;8.80;97.50;;;;;;4212161;28;20040;-55
2023/04/21 05:24:44;;;;;;;19.45;14.18;;;8.90;97.40;;;;;;4199854;28;20044;-56
2023/04/21 05:26:46;;;;;;;21.67;14.85;;;9.00;97.40;;;;;;4209688;28;20048;-55
2023/04/21 05:28:50;;;;;;;22.08;13.43;;;9.00;97.30;;;;;;4198879;28;20395;-56
2023/04/21 05:30:53;;;;;;;14.70;12.90;;;9.00;97.30;;;;;;4209386;28;20044;-55
2023/04/21 05:32:56;;;;;;;15.70;12.73;;;9.00;97.30;;;;;;4215691;28;20040;-54
2023/04/21 05:34:59;;;;;;;17.27;14.23;;;9.10;97.30;;;;;;4197670;28;20044;-54
2023/04/21 05:37:01;;;;;;;17.13;14.80;;;9.10;97.30;;;;;;4214588;28;20517;-54
2023/04/21 05:39:03;;;;;;;14.80;13.23;;;9.10;97.20;;;;;;4214939;28;20044;-54
2023/04/21 05:41:05;;;;;;;20.42;14.98;;;9.10;97.00;;;;;;4213032;28;20051;-54
2023/04/21 05:43:07;;;;;;;19.17;15.43;;;9.20;97.20;;;;;;4192824;28;20044;-55
2023/04/21 05:45:12;;;;;;;17.60;14.43;;;9.30;97.00;;;;;;4197105;28;20075;-55
2023/04/21 05:47:14;;;;;;;18.30;15.20;;;9.30;96.90;;;;;;4214342;28;20465;-56
2023/04/21 05:49:17;;;;;;;15.88;13.95;;;9.30;96.70;;;;;;4215743;28;20048;-54
2023/04/21 05:51:19;;;;;;;19.13;14.95;;;9.40;96.70;;;;;;4189082;28;20049;-54
2023/04/21 05:53:22;;;;;;;20.00;15.52;;;9.30;97.00;;;;;;4207531;28;20051;-55
2023/04/21 05:55:24;;;;;;;17.10;14.90;;;9.20;96.90;;;;;;4214481;28;20047;-54
2023/04/21 05:57:26;;;;;;;19.25;15.93;;;9.10;97.20;;;;;;4192448;28;20422;-56
2023/04/21 05:59:28;;;;;;;20.25;13.77;;;9.10;97.40;;;;;;4198991;28;20044;-55
2023/04/21 06:01:32;;;;;;;19.15;15.43;;;9.20;97.50;;;;;;4207616;28;20032;-59
2023/04/21 06:03:34;;;;;;;21.42;15.75;;;9.20;97.10;;;;;;4215024;28;20048;-56
2023/04/21 06:05:36;;;;;;;18.58;15.40;;;9.10;97.60;;;;;;4215463;28;20131;-55
2023/04/21 06:07:39;;;;;;;19.23;16.52;;;9.10;97.60;;;;;;4213135;28;20051;-56
2023/04/21 06:09:41;;;;;;;19.73;15.73;;;9.10;97.90;;;;;;4214925;28;20048;-55
2023/04/21 06:11:43;;;;;;;18.30;16.02;;;9.10;97.50;;;;;;4215742;28;20421;-57
2023/04/21 06:13:46;;;;;;;19.50;15.85;;;9.10;97.70;;;;;;4215295;28;20047;-61
2023/04/21 06:15:48;;;;;;;19.05;14.88;;;9.20;97.50;;;;;;4215390;28;20047;-56
2023/04/21 06:17:56;;;;;;;19.85;16.33;;;9.20;97.40;;;;;;4213585;28;20417;-55
2023/04/21 06:19:58;;;;;;;19.10;15.45;;;9.30;97.20;;;;;;4215070;28;20079;-57
2023/04/21 06:22:00;;;;;;;17.50;14.65;;;9.30;97.10;;;;;;4214583;28;20044;-54
2023/04/21 06:24:03;;;;;;;15.38;13.10;;;9.50;96.90;;;;;;4210179;28;20447;-55
2023/04/21 06:26:06;;;;;;;17.08;14.18;;;9.60;96.20;;;;;;4215296;28;20491;-55
2023/04/21 06:28:08;;;;;;;18.15;13.18;;;9.50;96.30;;;;;;4213922;28;20050;-55
2023/04/21 06:30:11;;;;;;;15.63;13.77;;;9.60;96.10;;;;;;4214790;28;20535;-53
2023/04/21 06:32:14;;;;;;;17.30;14.20;;;9.80;96.30;;;;;;4215002;28;20064;-56
2023/04/21 06:34:18;;;;;;;15.77;13.18;;;9.80;96.10;;;;;;4215876;28;20055;-52
2023/04/21 06:36:22;;;;;;;18.17;15.05;;;9.70;96.10;;;;;;4216500;28;20044;-53
2023/04/21 06:38:24;;;;;;;18.42;15.57;;;9.70;96.00;;;;;;4195563;28;20040;-55
2023/04/21 06:40:26;;;;;;;16.67;14.85;;;9.80;96.20;;;;;;4216131;28;20555;-54
2023/04/21 06:42:28;;;;;;;15.38;13.48;;;9.80;96.20;;;;;;4214228;28;20048;-55
2023/04/21 06:44:31;;;;;;;17.77;15.32;;;9.70;96.20;;;;;;4208853;28;20040;-53
2023/04/21 06:46:34;;;;;;;17.15;14.73;;;9.70;95.90;;;;;;4197727;28;20466;-54
2023/04/21 06:48:36;;;;;;;18.35;14.07;;;9.50;96.10;;;;;;4203698;28;20477;-56
2023/04/21 06:50:40;;;;;;;18.13;13.90;;;9.50;96.20;;;;;;4202800;28;20545;-54
2023/04/21 06:52:42;;;;;;;17.55;15.20;;;9.40;96.40;;;;;;4198610;28;20421;-54
2023/04/21 06:54:44;;;;;;;18.63;14.18;;;9.30;96.80;;;;;;4209897;28;20045;-54
2023/04/21 06:56:46;;;;;;;19.38;15.43;;;9.50;96.50;;;;;;4210252;28;20165;-53
2023/04/21 06:58:48;;;;;;;20.30;14.73;;;9.50;96.40;;;;;;4204238;28;20102;-54
2023/04/21 07:00:50;;;;;;;18.98;14.95;;;9.60;96.50;;;;;;4190365;28;20083;-54
2023/04/21 07:02:53;;;;;;;21.23;15.65;;;9.60;96.50;;;;;;4214002;28;20044;-56
2023/04/21 07:04:55;;;;;;;19.08;15.18;;;9.70;96.40;;;;;;4208221;28;20139;-55
2023/04/21 07:06:59;;;;;;;22.40;15.10;;;9.70;96.10;;;;;;4196609;28;20096;-54
2023/04/21 07:09:04;;;;;;;20.27;15.82;;;9.70;96.30;;;;;;4202080;28;20040;-55
2023/04/21 07:11:10;;;;;;;22.38;16.15;;;9.80;96.20;;;;;;4185519;28;20530;-55
2023/04/21 07:13:12;;;;;;;15.57;13.85;;;9.90;95.80;;;;;;4197395;28;20079;-55
2023/04/21 07:15:16;;;;;;;16.35;14.18;;;9.70;95.80;;;;;;4208218;28;20044;-55
2023/04/21 07:17:18;;;;;;;19.15;13.63;;;9.70;96.10;;;;;;4196201;28;20044;-54
2023/04/21 07:19:20;;;;;;;15.65;13.25;;;9.80;96.00;;;;;;4200577;28;20482;-54
2023/04/21 07:21:22;;;;;;;17.27;12.82;;;9.90;95.90;;;;;;4204186;28;20059;-55
2023/04/21 07:23:26;;;;;;;15.98;13.60;;;10.10;95.10;;;;;;4201722;28;20052;-60
2023/04/21 07:25:28;;;;;;;16.30;12.82;;;10.30;95.00;;;;;;4200826;28;20103;-56
2023/04/21 07:27:30;;;;;;;16.75;10.50;;;10.50;95.20;;;;;;4196029;28;20066;-60
2023/04/21 07:29:32;;;;;;;16.20;14.10;;;10.80;94.90;;;;;;4200878;28;20048;-54
2023/04/21 07:31:36;;;;;;;21.67;13.13;;;10.90;94.40;;;;;;4196979;28;20036;-52
2023/04/21 07:33:38;;;;;;;16.00;12.82;;;11.00;94.30;;;;;;4197045;28;20047;-53
2023/04/21 07:35:40;;;;;;;14.40;12.43;;;11.10;94.30;;;;;;4200506;28;20053;-53
2023/04/21 07:37:43;;;;;;;19.05;14.02;;;11.70;94.10;;;;;;4178688;28;20049;-54
2023/04/21 07:39:47;;;;;;;17.15;12.98;;;11.80;93.10;;;;;;4202750;28;20058;-53
2023/04/21 07:41:49;;;;;;;13.07;10.38;;;11.50;93.60;;;;;;4222209;28;20043;-52
2023/04/21 07:43:51;;;;;;;15.02;11.07;;;11.50;93.00;;;;;;4202495;28;20111;-54
2023/04/21 07:45:54;;;;;;;18.23;13.45;;;11.60;93.30;;;;;;4211949;28;20082;-60
2023/04/21 07:47:57;;;;;;;14.02;12.45;;;12.30;92.60;;;;;;4213237;28;20075;-59
2023/04/21 07:50:00;;;;;;;13.73;11.45;;;12.40;92.20;;;;;;4214295;28;20048;-53
2023/04/21 07:52:02;;;;;;;15.55;13.43;;;12.30;91.80;;;;;;4214443;28;20097;-59
2023/04/21 07:54:05;;;;;;;15.68;12.48;;;12.00;92.20;;;;;;4214957;28;20478;-52
2023/04/21 07:56:08;;;;;;;15.60;10.75;;;12.00;92.20;;;;;;4206675;28;20074;-54
2023/04/21 07:58:10;;;;;;;15.35;12.25;;;11.80;91.80;;;;;;4210554;28;20040;-52
2023/04/21 08:00:14;;;;;;;13.85;10.32;;;11.40;92.30;;;;;;4213246;28;20101;-52
2023/04/21 08:02:16;;;;;;;20.40;11.45;;;11.50;92.20;;;;;;4212522;28;20044;-55
2023/04/21 08:04:18;;;;;;;16.67;12.48;;;11.50;92.10;;;;;;4212871;28;20048;-55
2023/04/21 08:06:21;;;;;;;12.98;11.18;;;11.30;92.60;;;;;;4213101;28;20048;-55
2023/04/21 08:08:23;;;;;;;13.77;10.93;;;11.30;92.50;;;;;;4212273;28;20429;-54
2023/04/21 08:10:25;;;;;;;13.60;10.93;;;11.50;92.20;;;;;;4213097;28;20436;-56
2023/04/21 08:12:29;;;;;;;14.70;11.38;;;11.90;92.40;;;;;;4213282;28;20093;-56
2023/04/21 08:14:31;;;;;;;15.30;10.38;;;11.90;92.20;;;;;;4195661;28;20125;-55
2023/04/21 08:16:35;;;;;;;12.23;9.77;;;12.20;91.80;;;;;;4213301;28;20036;-55
2023/04/21 08:18:38;;;;;;;;;;;12.60;91.90;;;;;;4212666;28;20050;-55
2023/04/21 08:20:43;;;;;;;10.82;8.95;;;13.00;91.50;;;;;;4212571;28;19928;-54
2023/04/21 08:22:45;;;;;;;10.18;8.50;;;13.10;90.70;;;;;;4213528;28;20417;-54
2023/04/21 08:24:49;;;;;;;7.50;5.72;;;12.80;89.70;;;;;;4213461;28;20500;-54
2023/04/21 08:26:51;;;;;;;10.88;6.00;;;12.30;88.70;;;;;;4213041;28;20048;-55
2023/04/21 08:28:55;;;;;;;7.65;5.80;;;12.00;90.10;;;;;;4212436;28;20055;-54
2023/04/21 08:30:57;;;;;;;6.57;5.30;;;11.80;89.90;;;;;;4215560;28;20071;-54
2023/04/21 08:33:00;;;;;;;7.68;5.20;;;11.50;89.40;;;;;;4215837;28;20044;-55
2023/04/21 08:35:03;;;;;;;5.70;5.07;;;11.30;90.20;;;;;;4216309;28;20044;-55
2023/04/21 08:37:05;;;;;;;8.90;5.60;;;11.30;90.80;;;;;;4192999;28;20437;-55
2023/04/21 08:39:07;;;;;;;8.82;7.35;;;11.50;90.40;;;;;;4210086;28;20066;-55
2023/04/21 08:41:09;;;;;;;9.95;7.15;;;12.00;90.00;;;;;;4218245;28;20048;-54
2023/04/21 08:43:11;;;;;;;12.93;8.20;;;11.90;90.10;;;;;;4212762;28;20052;-55
2023/04/21 08:45:15;;;;;;;14.13;7.53;;;12.00;89.30;;;;;;4216443;28;20040;-54
2023/04/21 08:47:19;;;;;;;9.10;7.53;;;11.90;89.60;;;;;;4215377;28;20062;-54
2023/04/21 08:49:22;;;;;;;14.40;10.15;;;11.80;90.30;;;;;;4215652;28;20052;-54
2023/04/21 08:51:27;;;;;;;16.25;14.13;;;12.10;90.10;;;;;;4199974;28;20094;-54
2023/04/21 08:53:29;;;;;;;12.82;10.95;;;12.10;90.20;;;;;;4203313;28;20040;-55
2023/04/21 08:55:32;;;;;;;12.15;10.80;;;12.30;90.20;;;;;;4199951;28;20045;-55
2023/04/21 08:57:34;;;;;;;13.88;10.93;;;12.20;90.00;;;;;;4214806;28;20051;-54
2023/04/21 08:59:36;;;;;;;14.27;12.50;;;12.20;90.20;;;;;;4215889;28;20517;-55
2023/04/21 09:02:11;;;;;;;16.08;11.63;;;12.30;89.90;;;;;;4216223;28;20086;-55
2023/04/21 09:04:17;;;;;;;13.02;11.60;;;12.40;89.80;;;;;;4210476;28;20119;-55
2023/04/21 09:06:19;;;;;;;16.65;10.18;;;12.40;89.10;;;;;;4198901;28;20471;-55
2023/04/21 09:08:24;;;;;;;13.63;8.65;;;12.40;87.40;;;;;;4210942;28;20044;-52
2023/04/21 09:10:26;;;;;;;12.15;8.98;;;12.50;87.10;;;;;;4216032;28;20041;-54
2023/04/21 09:12:29;;;;;;;15.88;10.63;;;12.60;86.10;;;;;;4215536;28;20051;-56
2023/04/21 09:14:32;;;;;;;12.57;10.45;;;12.70;87.20;;;;;;4215763;28;20130;-55
2023/04/21 09:16:34;;;;;;;13.82;10.70;;;12.80;87.70;;;;;;4215636;28;20391;-54
2023/04/21 09:18:39;;;;;;;13.73;10.52;;;12.80;87.20;;;;;;4214623;28;20044;-56
2023/04/21 09:20:42;;;;;;;12.82;9.77;;;12.70;87.20;;;;;;4216255;28;20055;-54
2023/04/21 09:22:46;;;;;;;11.07;9.55;;;12.70;87.60;;;;;;4216154;28;20101;-51
2023/04/21 09:24:55;;;;;;;11.67;8.57;;;12.90;85.90;;;;;;4216131;28;20485;-51
2023/04/21 09:26:57;;;;;;;11.77;9.43;;;13.00;84.20;;;;;;4217191;28;20044;-56
2023/04/21 09:28:59;;;;;;;14.35;10.35;;;13.30;84.10;;;;;;4216070;28;20454;-52
2023/04/21 09:31:01;;;;;;;14.20;12.40;;;13.40;84.80;;;;;;4217632;28;20090;-55
2023/04/21 09:33:04;;;;;;;19.52;12.15;;;13.30;86.10;;;;;;4216881;28;20043;-59
2023/04/21 09:35:26;;;;;;;17.00;12.63;;;13.30;87.60;;;;;;4204820;28;20120;-54
2023/04/21 09:37:31;;;;;;;16.98;12.38;;;13.50;86.80;;;;;;4215093;28;20051;-56
2023/04/21 09:39:33;;;;;;;;;;;13.30;87.80;;;;;;4202319;28;20060;-53
2023/04/21 09:41:56;;;;;;;19.77;11.18;;;13.20;87.60;;;;;;4206552;28;19927;-54
2023/04/21 09:44:03;;;;;;;19.92;14.25;;;13.20;88.30;;;;;;4215101;28;20455;-54
2023/04/21 09:46:06;;;;;;;14.50;11.32;;;13.10;87.60;;;;;;4214979;28;20043;-54
2023/04/21 09:48:10;;;;;;;31.17;22.55;;;13.20;87.00;;;;;;4196840;28;20044;-55
2023/04/21 09:50:14;;;;;;;12.55;10.57;;;13.10;87.30;;;;;;4199887;28;20398;-53
2023/04/21 09:52:19;;;;;;;12.48;10.75;;;13.10;86.30;;;;;;4198603;28;20138;-53
2023/04/21 09:54:29;;;;;;;16.95;13.30;;;12.90;86.40;;;;;;4202617;28;20053;-51
2023/04/21 09:56:36;;;;;;;15.55;11.73;;;13.00;86.10;;;;;;4199125;28;20049;-53
2023/04/21 09:58:43;;;;;;;10.43;8.07;;;13.00;86.10;;;;;;4198405;28;20056;-57
2023/04/21 10:00:45;;;;;;;14.13;9.60;;;13.20;86.50;;;;;;4191666;28;20047;-54
2023/04/21 10:02:50;;;;;;;13.13;8.63;;;13.20;86.40;;;;;;4198899;28;20079;-55
2023/04/21 10:04:53;;;;;;;11.15;7.28;;;13.20;84.90;;;;;;4208358;28;20153;-57
2023/04/21 10:06:55;;;;;;;8.57;7.65;;;13.30;84.20;;;;;;4216458;28;20040;-57
2023/04/21 10:09:00;;;;;;;7.80;6.40;;;13.50;84.80;;;;;;4196380;28;20165;-51
2023/04/21 10:11:03;;;;;;;9.40;7.03;;;13.90;83.50;;;;;;4214634;28;20043;-52
2023/04/21 10:13:06;;;;;;;13.07;7.07;;;14.10;82.00;;;;;;4215245;28;20055;-53
2023/04/21 10:15:28;;;;;;;9.02;7.80;;;14.10;82.50;;;;;;4214449;28;20486;-53
2023/04/21 10:17:35;;;;;;;11.70;7.68;;;14.10;82.10;;;;;;4214741;28;20489;-52
2023/04/21 10:19:48;;;;;;;11.32;7.70;;;14.10;83.40;;;;;;4214353;28;20123;-55
2023/04/21 10:21:50;;;;;;;10.32;7.90;;;14.00;82.70;;;;;;4214390;28;20047;-55
2023/04/21 10:23:53;;;;;;;11.05;7.15;;;14.00;83.10;;;;;;4205941;28;20044;-53
2023/04/21 10:26:09;;;;;;;11.30;6.82;;;13.90;81.90;;;;;;4210088;28;20048;-52
2023/04/21 10:28:16;;;;;;;12.00;6.82;;;14.00;82.50;;;;;;4213553;28;20535;-52
2023/04/21 10:30:19;;;;;;;7.00;6.05;;;14.20;80.30;;;;;;4214081;28;20048;-53
2023/04/21 10:32:37;;;;;;;9.30;5.95;;;14.30;79.10;;;;;;4214599;28;20036;-53